createdAt,value
2022-10-30T00:00:30.024Z,100461.13
2022-10-30T00:02:57.397Z,100463.19
2022-10-30T00:05:25.125Z,100468.28
2022-10-30T00:07:51.961Z,100457.34
2022-10-30T00:10:18.810Z,100459.41
2022-10-30T00:12:45.718Z,100462.34
2022-10-30T00:15:12.689Z,100460.84
2022-10-30T00:17:39.520Z,100455.44
2022-10-30T00:20:07.482Z,100454.22
2022-10-30T00:22:36.192Z,100460.72
2022-10-30T00:25:04.126Z,100461.38
2022-10-30T00:27:31.673Z,100463.72
2022-10-30T00:29:58.332Z,100475.53
2022-10-30T00:32:25.014Z,100480.84
2022-10-30T00:34:51.963Z,100486.59
2022-10-30T00:37:18.595Z,100490.16
2022-10-30T00:39:45.231Z,100483.19
2022-10-30T00:42:16.430Z,100484.88
2022-10-30T00:44:49.727Z,100471.63
2022-10-30T00:47:28.458Z,100480.59
2022-10-30T00:49:57.863Z,100470.47
2022-10-30T00:52:29.910Z,100466.44
2022-10-30T00:54:58.527Z,100465.78
2022-10-30T00:57:26.720Z,100471.44
2022-10-30T00:59:53.814Z,100475.03
2022-10-30T01:02:22.509Z,100460.31
2022-10-30T01:04:51.434Z,100463.72
2022-10-30T01:07:18.402Z,100458.03
2022-10-30T01:09:47.324Z,100459.47
2022-10-30T01:12:15.190Z,100464.47
2022-10-30T01:14:47.646Z,100444.25
2022-10-30T01:17:43.537Z,100442.75
2022-10-30T01:20:19.440Z,100439.59
2022-10-30T01:23:23.909Z,100439.59
2022-10-30T01:26:12.076Z,100454.28
2022-10-30T01:28:47.677Z,100445.47
2022-10-30T01:31:32.709Z,100445.81
2022-10-30T01:34:21.471Z,100443.28
2022-10-30T01:37:10.182Z,100438.31
2022-10-30T01:39:40.343Z,100428.00
2022-10-30T01:42:11.923Z,100435.38
2022-10-30T01:44:39.125Z,100437.63
2022-10-30T01:47:51.334Z,100442.25
2022-10-30T01:50:33.127Z,100446.28
2022-10-30T01:53:05.617Z,100445.88
2022-10-30T01:56:07.827Z,100453.13
2022-10-30T01:58:48.359Z,100441.59
2022-10-30T02:01:15.701Z,100434.91
2022-10-30T02:03:43.148Z,100430.28
2022-10-30T02:06:10.180Z,100428.78
2022-10-30T02:08:36.984Z,100432.56
2022-10-30T02:11:04.990Z,100427.94
2022-10-30T02:13:32.949Z,100437.44
2022-10-30T02:15:59.931Z,100436.06
2022-10-30T02:18:26.719Z,100430.25
2022-10-30T02:20:54.222Z,100433.63
2022-10-30T02:23:22.456Z,100433.81
2022-10-30T02:25:49.136Z,100427.53
2022-10-30T02:28:15.959Z,100422.06
2022-10-30T02:30:44.272Z,100425.81
2022-10-30T02:33:11.347Z,100424.78
2022-10-30T02:35:38.187Z,100420.16
2022-10-30T02:38:04.851Z,100416.66
2022-10-30T02:40:31.808Z,100419.81
2022-10-30T02:42:58.834Z,100419.03
2022-10-30T02:45:25.519Z,100408.53
2022-10-30T02:47:52.214Z,100412.75
2022-10-30T02:50:19.067Z,100399.72
2022-10-30T02:52:45.690Z,100393.88
2022-10-30T02:55:12.456Z,100394.50
2022-10-30T02:57:39.225Z,100399.34
2022-10-30T03:00:06.621Z,100406.88
2022-10-30T03:02:33.864Z,100403.75
2022-10-30T03:05:00.707Z,100406.28
2022-10-30T03:07:27.816Z,100419.75
2022-10-30T03:09:55.047Z,100417.03
2022-10-30T03:12:22.484Z,100404.81
2022-10-30T03:14:49.124Z,100411.72
2022-10-30T03:17:15.945Z,100410.03
2022-10-30T03:19:42.853Z,100414.44
2022-10-30T03:22:09.622Z,100414.88
2022-10-30T03:24:36.448Z,100408.63
2022-10-30T03:27:03.275Z,100418.69
2022-10-30T03:29:30.096Z,100421.03
2022-10-30T03:31:56.856Z,100400.84
2022-10-30T03:34:23.645Z,100406.97
2022-10-30T03:36:50.336Z,100405.72
2022-10-30T03:39:17.142Z,100415.41
2022-10-30T03:41:44.205Z,100410.13
2022-10-30T03:44:10.877Z,100410.34
2022-10-30T03:46:38.335Z,100402.53
2022-10-30T03:49:05.048Z,100402.94
2022-10-30T03:51:31.790Z,100400.22
2022-10-30T03:53:59.151Z,100396.25
2022-10-30T03:56:25.952Z,100393.09
2022-10-30T03:58:52.780Z,100391.84
2022-10-30T04:01:19.765Z,100386.81
2022-10-30T04:03:46.509Z,100377.38
2022-10-30T04:06:13.392Z,100372.75
2022-10-30T04:08:40.219Z,100372.59
2022-10-30T04:11:07.009Z,100371.50
2022-10-30T04:13:33.822Z,100362.28
2022-10-30T04:16:00.570Z,100367.75
2022-10-30T04:18:27.480Z,100373.22
2022-10-30T04:20:54.358Z,100367.53
2022-10-30T04:23:22.355Z,100359.13
2022-10-30T04:25:49.365Z,100362.53
2022-10-30T04:28:16.452Z,100345.91
2022-10-30T04:30:43.245Z,100353.28
2022-10-30T04:33:13.817Z,100341.94
2022-10-30T04:35:41.413Z,100338.53
2022-10-30T04:38:13.918Z,100346.75
2022-10-30T04:40:43.235Z,100346.13
2022-10-30T04:43:11.116Z,100357.06
2022-10-30T04:45:38.452Z,100354.31
2022-10-30T04:48:05.206Z,100362.53
2022-10-30T04:50:33.011Z,100361.66
2022-10-30T04:53:14.508Z,100360.00
2022-10-30T04:55:41.694Z,100348.19
2022-10-30T04:58:09.458Z,100353.66
2022-10-30T05:00:37.164Z,100348.19
2022-10-30T05:03:04.246Z,100356.59
2022-10-30T05:05:31.707Z,100355.97
2022-10-30T05:07:59.065Z,100346.47
2022-10-30T05:10:26.023Z,100344.34
2022-10-30T05:12:54.433Z,100334.22
2022-10-30T05:15:21.632Z,100333.75
2022-10-30T05:17:52.944Z,100337.50
2022-10-30T05:20:20.035Z,100345.84
2022-10-30T05:22:47.160Z,100359.47
2022-10-30T05:25:13.997Z,100356.31
2022-10-30T05:27:40.630Z,100358.56
2022-10-30T05:30:08.023Z,100365.94
2022-10-30T05:32:34.820Z,100354.81
2022-10-30T05:35:01.503Z,100346.41
2022-10-30T05:37:28.610Z,100323.72
2022-10-30T05:39:55.333Z,100315.34
2022-10-30T05:42:21.985Z,100317.22
2022-10-30T05:45:00.908Z,100317.59
2022-10-30T05:47:28.633Z,100323.47
2022-10-30T05:49:55.393Z,100332.47
2022-10-30T05:52:22.030Z,100345.88
2022-10-30T05:54:48.778Z,100338.09
2022-10-30T05:57:15.632Z,100333.47
2022-10-30T05:59:42.278Z,100345.22
2022-10-30T06:02:08.985Z,100349.84
2022-10-30T06:04:35.793Z,100350.69
2022-10-30T06:07:02.438Z,100339.75
2022-10-30T06:09:29.147Z,100355.31
2022-10-30T06:11:56.091Z,100354.28
2022-10-30T06:14:22.747Z,100343.56
2022-10-30T06:16:49.443Z,100334.31
2022-10-30T06:19:18.663Z,100332.63
2022-10-30T06:21:46.508Z,100334.72
2022-10-30T06:24:13.774Z,100340.38
2022-10-30T06:26:40.963Z,100338.88
2022-10-30T06:29:07.810Z,100333.19
2022-10-30T06:31:34.481Z,100327.88
2022-10-30T06:34:01.874Z,100328.03
2022-10-30T06:36:28.546Z,100339.09
2022-10-30T06:38:55.380Z,100319.28
2022-10-30T06:41:26.097Z,100323.44
2022-10-30T06:43:56.865Z,100327.13
2022-10-30T06:46:26.968Z,100336.94
2022-10-30T06:48:57.475Z,100324.94
2022-10-30T06:51:25.353Z,100327.38
2022-10-30T06:53:52.201Z,100324.41
2022-10-30T06:56:18.826Z,100324.13
2022-10-30T06:58:45.665Z,100323.03
2022-10-30T07:01:12.391Z,100315.44
2022-10-30T07:03:39.110Z,100328.78
2022-10-30T07:06:06.261Z,100323.06
2022-10-30T07:08:33.036Z,100315.28
2022-10-30T07:10:59.684Z,100332.03
2022-10-30T07:13:26.840Z,100326.97
2022-10-30T07:15:53.802Z,100342.66
2022-10-30T07:18:20.538Z,100338.72
2022-10-30T07:20:47.321Z,100331.84
2022-10-30T07:23:14.106Z,100338.41
2022-10-30T07:25:40.742Z,100341.41
2022-10-30T07:28:07.429Z,100339.50
2022-10-30T07:30:34.171Z,100335.94
2022-10-30T07:33:05.681Z,100333.22
2022-10-30T07:35:35.487Z,100331.81
2022-10-30T07:38:06.912Z,100336.25
2022-10-30T07:40:34.411Z,100331.28
2022-10-30T07:43:03.043Z,100334.25
2022-10-30T07:45:30.479Z,100329.47
2022-10-30T07:47:57.663Z,100330.75
2022-10-30T07:50:25.300Z,100316.13
2022-10-30T07:52:51.966Z,100305.22
2022-10-30T07:55:18.646Z,100305.34
2022-10-30T07:57:45.516Z,100297.88
2022-10-30T08:00:14.431Z,100297.47
2022-10-30T08:02:41.973Z,100295.63
2022-10-30T08:05:09.943Z,100297.41
2022-10-30T08:07:39.249Z,100298.69
2022-10-30T08:10:07.601Z,100305.63
2022-10-30T08:12:35.522Z,100305.44
2022-10-30T08:15:02.530Z,100304.56
2022-10-30T08:17:29.189Z,100305.63
2022-10-30T08:19:57.331Z,100306.47
2022-10-30T08:22:24.242Z,100309.19
2022-10-30T08:24:51.259Z,100309.41
2022-10-30T08:27:18.277Z,100316.56
2022-10-30T08:30:34.158Z,100316.75
2022-10-30T08:34:00.729Z,100307.44
2022-10-30T08:40:11.480Z,100318.25
2022-10-30T08:42:38.768Z,100319.50
2022-10-30T08:45:06.609Z,100319.50
2022-10-30T08:47:33.429Z,100326.63
2022-10-30T08:50:00.155Z,100318.47
2022-10-30T08:52:27.452Z,100311.94
2022-10-30T08:54:54.557Z,100322.47
2022-10-30T08:57:21.323Z,100326.50
2022-10-30T08:59:47.946Z,100316.69
2022-10-30T09:02:14.900Z,100321.81
2022-10-30T09:04:41.639Z,100327.97
2022-10-30T09:07:11.947Z,100332.44
2022-10-30T09:09:39.930Z,100331.25
2022-10-30T09:12:06.813Z,100333.81
2022-10-30T09:14:33.470Z,100327.19
2022-10-30T09:17:00.223Z,100319.03
2022-10-30T09:19:28.642Z,100316.78
2022-10-30T09:21:55.489Z,100323.88
2022-10-30T09:24:22.275Z,100316.81
2022-10-30T09:26:49.081Z,100323.59
2022-10-30T09:29:15.727Z,100321.16
2022-10-30T09:31:42.758Z,100314.19
2022-10-30T09:34:09.559Z,100309.31
2022-10-30T09:36:36.227Z,100312.50
2022-10-30T09:39:02.970Z,100311.47
2022-10-30T09:41:32.628Z,100295.91
2022-10-30T09:44:23.304Z,100310.63
2022-10-30T09:46:49.918Z,100317.19
2022-10-30T09:49:32.278Z,100298.28
2022-10-30T09:52:05.099Z,100309.59
2022-10-30T09:55:02.250Z,100307.94
2022-10-30T09:57:50.277Z,100308.78
2022-10-30T10:00:28.246Z,100306.91
2022-10-30T10:03:31.653Z,100305.44
2022-10-30T10:05:59.906Z,100319.50
2022-10-30T10:09:05.139Z,100318.97
2022-10-30T10:11:44.434Z,100327.47
2022-10-30T10:14:20.996Z,100322.09
2022-10-30T10:16:52.589Z,100319.53
2022-10-30T10:19:29.155Z,100317.41
2022-10-30T10:21:58.466Z,100323.97
2022-10-30T10:24:35.620Z,100323.41
2022-10-30T10:27:16.814Z,100316.03
2022-10-30T10:30:08.732Z,100305.94
2022-10-30T10:33:02.502Z,100303.72
2022-10-30T10:35:57.296Z,100302.75
2022-10-30T10:38:45.503Z,100302.81
2022-10-30T10:41:12.224Z,100288.75
2022-10-30T10:44:13.275Z,100292.56
2022-10-30T10:47:01.743Z,100297.19
2022-10-30T10:49:53.131Z,100302.06
2022-10-30T10:52:40.140Z,100303.75
2022-10-30T10:55:17.962Z,100306.25
2022-10-30T10:57:46.103Z,100315.94
2022-10-30T11:00:20.941Z,100326.72
2022-10-30T11:02:52.910Z,100320.19
2022-10-30T11:05:37.059Z,100321.03
2022-10-30T11:08:25.970Z,100326.50
2022-10-30T11:11:10.765Z,100323.75
2022-10-30T11:13:40.699Z,100328.16
2022-10-30T11:16:48.757Z,100325.19
2022-10-30T11:19:15.479Z,100327.00
2022-10-30T11:21:46.453Z,100325.69
2022-10-30T11:24:30.350Z,100311.28
2022-10-30T11:26:59.298Z,100321.19
2022-10-30T11:29:29.820Z,100318.66
2022-10-30T11:32:04.586Z,100302.25
2022-10-30T11:34:36.758Z,100317.72
2022-10-30T11:37:04.859Z,100308.28
2022-10-30T11:39:35.651Z,100312.75
2022-10-30T11:42:13.996Z,100313.81
2022-10-30T11:44:48.289Z,100311.34
2022-10-30T11:47:17.578Z,100330.06
2022-10-30T11:49:47.215Z,100339.97
2022-10-30T11:52:21.384Z,100337.03
2022-10-30T11:54:57.883Z,100343.34
2022-10-30T11:57:38.150Z,100334.50
2022-10-30T12:00:08.314Z,100325.84
2022-10-30T12:02:46.870Z,100332.41
2022-10-30T12:05:25.969Z,100317.03
2022-10-30T12:07:53.865Z,100328.81
2022-10-30T12:10:30.981Z,100327.53
2022-10-30T12:12:57.873Z,100330.06
2022-10-30T12:15:27.015Z,100344.16
2022-10-30T12:18:01.962Z,100338.59
2022-10-30T12:20:29.462Z,100342.78
2022-10-30T12:22:56.567Z,100343.56
2022-10-30T12:25:30.607Z,100337.97
2022-10-30T12:28:19.643Z,100332.44
2022-10-30T12:30:59.205Z,100322.28
2022-10-30T12:33:52.968Z,100329.50
2022-10-30T12:36:30.406Z,100338.63
2022-10-30T12:39:09.263Z,100329.56
2022-10-30T12:41:54.071Z,100340.94
2022-10-30T12:44:48.708Z,100328.94
2022-10-30T12:47:39.463Z,100334.25
2022-10-30T12:50:21.903Z,100329.63
2022-10-30T12:53:38.903Z,100330.50
2022-10-30T12:56:17.983Z,100328.13
2022-10-30T12:58:56.860Z,100326.53
2022-10-30T13:01:31.862Z,100328.22
2022-10-30T13:04:07.777Z,100326.97
2022-10-30T13:06:42.944Z,100325.16
2022-10-30T13:09:18.443Z,100325.06
2022-10-30T13:12:06.329Z,100330.56
2022-10-30T13:14:45.853Z,100320.81
2022-10-30T13:17:13.992Z,100328.53
2022-10-30T13:19:47.523Z,100336.44
2022-10-30T13:22:26.257Z,100316.56
2022-10-30T13:25:24.555Z,100321.81
2022-10-30T13:28:04.200Z,100330.47
2022-10-30T13:30:37.265Z,100335.66
2022-10-30T13:33:43.098Z,100336.28
2022-10-30T13:36:27.631Z,100345.25
2022-10-30T13:39:22.368Z,100344.94
2022-10-30T13:42:00.965Z,100342.03
2022-10-30T13:44:45.888Z,100352.81
2022-10-30T13:47:25.728Z,100341.50
2022-10-30T13:49:55.134Z,100346.41
2022-10-30T13:52:23.371Z,100359.72
2022-10-30T13:55:13.712Z,100353.22
2022-10-30T13:57:49.665Z,100365.06
2022-10-30T14:00:23.118Z,100365.69
2022-10-30T14:03:16.720Z,100372.00
2022-10-30T14:05:51.410Z,100374.28
2022-10-30T14:08:18.138Z,100378.84
2022-10-30T14:10:48.426Z,100389.28
2022-10-30T14:13:27.139Z,100388.25
2022-10-30T14:16:37.433Z,100380.53
2022-10-30T14:19:06.264Z,100383.78
2022-10-30T14:21:55.523Z,100382.69
2022-10-30T14:27:05.127Z,100375.03
2022-10-30T14:29:34.898Z,100397.00
2022-10-30T14:32:01.506Z,100403.41
2022-10-30T14:34:50.439Z,100399.13
2022-10-30T14:37:37.265Z,100398.63
2022-10-30T14:40:35.009Z,100404.38
2022-10-30T14:43:35.583Z,100411.38
2022-10-30T14:46:12.177Z,100412.88
2022-10-30T14:49:06.737Z,100425.41
2022-10-30T14:51:45.482Z,100425.47
2022-10-30T14:54:46.227Z,100426.78
2022-10-30T14:57:23.644Z,100431.41
2022-10-30T15:00:22.065Z,100441.53
2022-10-30T15:03:07.437Z,100440.72
2022-10-30T15:05:50.747Z,100444.50
2022-10-30T15:08:39.090Z,100451.44
2022-10-30T15:11:36.552Z,100447.84
2022-10-30T15:14:20.922Z,100464.53
2022-10-30T15:16:51.321Z,100462.63
2022-10-30T15:19:20.752Z,100467.25
2022-10-30T15:21:52.314Z,100465.78
2022-10-30T15:24:22.414Z,100471.03
2022-10-30T15:26:52.594Z,100477.81
2022-10-30T15:29:23.539Z,100479.06
2022-10-30T15:32:03.528Z,100489.34
2022-10-30T15:34:32.005Z,100495.47
2022-10-30T15:36:59.068Z,100485.75
2022-10-30T15:39:26.206Z,100496.50
2022-10-30T15:42:01.823Z,100491.25
2022-10-30T15:44:35.182Z,100486.56
2022-10-30T15:47:03.592Z,100487.41
2022-10-30T15:49:36.040Z,100492.06
2022-10-30T15:52:12.509Z,100500.03
2022-10-30T15:54:44.035Z,100490.75
2022-10-30T15:58:03.012Z,100498.75
2022-10-30T16:00:23.812Z,100512.59
2022-10-30T16:03:02.235Z,100518.72
2022-10-30T16:05:30.302Z,100521.88
2022-10-30T16:07:59.642Z,100532.44
2022-10-30T16:10:28.183Z,100521.03
2022-10-30T16:12:57.157Z,100525.44
2022-10-30T16:15:24.070Z,100528.13
2022-10-30T16:18:03.906Z,100519.72
2022-10-30T16:20:30.859Z,100527.47
2022-10-30T16:22:58.977Z,100531.88
2022-10-30T16:25:25.944Z,100537.09
2022-10-30T16:27:52.555Z,100538.53
2022-10-30T16:30:19.374Z,100539.34
2022-10-30T16:32:52.752Z,100540.81
2022-10-30T16:35:22.007Z,100543.09
2022-10-30T16:37:49.068Z,100550.19
2022-10-30T16:40:20.110Z,100548.91
2022-10-30T16:42:55.122Z,100552.25
2022-10-30T16:45:24.548Z,100556.22
2022-10-30T16:48:08.332Z,100568.41
2022-10-30T16:50:38.254Z,100574.47
2022-10-30T16:53:17.401Z,100567.69
2022-10-30T16:55:44.460Z,100572.91
2022-10-30T16:58:13.719Z,100580.47
2022-10-30T17:00:42.370Z,100586.13
2022-10-30T17:03:11.884Z,100578.50
2022-10-30T17:05:40.604Z,100584.56
2022-10-30T17:08:30.945Z,100590.63
2022-10-30T17:10:59.137Z,100592.91
2022-10-30T17:13:56.117Z,100597.72
2022-10-30T17:16:31.478Z,100604.63
2022-10-30T17:19:22.373Z,100610.47
2022-10-30T17:21:52.146Z,100614.06
2022-10-30T17:24:22.351Z,100615.28
2022-10-30T17:26:57.391Z,100616.31
2022-10-30T17:29:36.501Z,100627.44
2022-10-30T17:32:27.575Z,100626.13
2022-10-30T17:35:14.399Z,100634.34
2022-10-30T17:37:41.185Z,100626.34
2022-10-30T17:40:08.414Z,100628.22
2022-10-30T17:43:34.955Z,100632.00
2022-10-30T17:47:01.353Z,100632.13
2022-10-30T17:54:01.793Z,100647.88
2022-10-30T17:57:28.272Z,100659.63
2022-10-30T18:01:06.120Z,100668.66
2022-10-30T18:04:32.608Z,100656.50
2022-10-30T18:06:59.358Z,100661.97
2022-10-30T18:09:26.020Z,100665.38
2022-10-30T18:11:52.625Z,100665.38
2022-10-30T18:14:19.447Z,100666.41
2022-10-30T18:16:48.228Z,100676.50
2022-10-30T18:19:18.034Z,100693.03
2022-10-30T18:22:44.725Z,100667.16
2022-10-30T18:29:56.351Z,100679.69
2022-10-30T18:32:22.998Z,100685.34
2022-10-30T18:34:49.732Z,100680.47
2022-10-30T18:37:16.421Z,100689.03
2022-10-30T18:39:43.082Z,100697.63
2022-10-30T18:42:09.949Z,100697.78
2022-10-30T18:44:36.773Z,100708.91
2022-10-30T18:47:09.488Z,100706.56
2022-10-30T18:49:36.164Z,100712.22
2022-10-30T18:52:02.897Z,100715.13
2022-10-30T18:54:29.515Z,100719.56
2022-10-30T18:56:56.282Z,100722.28
2022-10-30T18:59:23.114Z,100717.84
2022-10-30T19:01:50.086Z,100718.06
2022-10-30T19:04:21.958Z,100718.88
2022-10-30T19:06:49.336Z,100726.06
2022-10-30T19:09:16.035Z,100729.81
2022-10-30T19:11:44.530Z,100730.19
2022-10-30T19:14:15.447Z,100733.56
2022-10-30T19:16:42.325Z,100735.66
2022-10-30T19:19:09.119Z,100739.59
2022-10-30T19:21:35.975Z,100737.25
2022-10-30T19:24:02.904Z,100737.63
2022-10-30T19:26:29.677Z,100738.19
2022-10-30T19:28:56.481Z,100737.53
2022-10-30T19:31:23.170Z,100744.31
2022-10-30T19:33:53.184Z,100752.50
2022-10-30T19:36:36.565Z,100743.28
2022-10-30T19:39:09.176Z,100745.16
2022-10-30T19:41:36.947Z,100744.31
2022-10-30T19:44:04.269Z,100752.69
2022-10-30T19:47:30.818Z,100758.16
2022-10-30T19:53:40.387Z,100753.06
2022-10-30T19:56:09.656Z,100748.81
2022-10-30T19:58:36.332Z,100759.06
2022-10-30T20:01:03.301Z,100753.81
2022-10-30T20:03:29.932Z,100758.41
2022-10-30T20:05:56.565Z,100749.38
2022-10-30T20:08:26.047Z,100755.88
2022-10-30T20:10:58.094Z,100763.19
2022-10-30T20:13:26.477Z,100765.09
2022-10-30T20:15:54.896Z,100763.88
2022-10-30T20:18:30.733Z,100762.38
2022-10-30T20:21:03.914Z,100758.97
2022-10-30T20:23:31.501Z,100765.94
2022-10-30T20:26:02.715Z,100758.59
2022-10-30T20:28:37.161Z,100757.75
2022-10-30T20:31:04.345Z,100751.63
2022-10-30T20:33:31.200Z,100754.38
2022-10-30T20:35:58.823Z,100753.88
2022-10-30T20:38:29.399Z,100752.38
2022-10-30T20:40:57.748Z,100756.50
2022-10-30T20:43:37.984Z,100753.13
2022-10-30T20:46:07.165Z,100749.72
2022-10-30T20:48:33.939Z,100752.44
2022-10-30T20:51:02.148Z,100744.25
2022-10-30T20:53:29.744Z,100750.97
2022-10-30T20:55:56.970Z,100754.72
2022-10-30T20:58:24.243Z,100737.84
2022-10-30T21:00:53.421Z,100744.69
2022-10-30T21:03:20.227Z,100739.91
2022-10-30T21:05:47.204Z,100742.13
2022-10-30T21:08:14.485Z,100736.69
2022-10-30T21:10:42.091Z,100732.44
2022-10-30T21:13:10.919Z,100741.88
2022-10-30T21:15:42.923Z,100738.75
2022-10-30T21:18:11.719Z,100735.16
2022-10-30T21:20:38.873Z,100739.78
2022-10-30T21:23:06.341Z,100724.81
2022-10-30T21:25:33.608Z,100733.38
2022-10-30T21:28:01.018Z,100725.75
2022-10-30T21:30:28.343Z,100732.59
2022-10-30T21:32:55.223Z,100732.31
2022-10-30T21:35:21.972Z,100732.00
2022-10-30T21:37:48.879Z,100727.94
2022-10-30T21:40:15.642Z,100729.16
2022-10-30T21:42:42.265Z,100732.25
2022-10-30T21:45:09.946Z,100736.34
2022-10-30T21:47:36.761Z,100734.84
2022-10-30T21:50:07.689Z,100725.00
2022-10-30T21:52:36.190Z,100727.72
2022-10-30T21:55:03.388Z,100727.34
2022-10-30T21:57:30.219Z,100724.44
2022-10-30T21:59:58.909Z,100723.41
2022-10-30T22:02:28.513Z,100728.69
2022-10-30T22:04:55.383Z,100728.69
2022-10-30T22:07:22.162Z,100728.69
2022-10-30T22:09:48.892Z,100729.44
2022-10-30T22:12:15.623Z,100720.06
2022-10-30T22:14:42.524Z,100720.06
2022-10-30T22:17:09.334Z,100716.31
2022-10-30T22:19:36.789Z,100708.31
2022-10-30T22:22:03.574Z,100710.88
2022-10-30T22:24:30.272Z,100708.13
2022-10-30T22:26:57.003Z,100721.41
2022-10-30T22:29:23.807Z,100718.47
2022-10-30T22:31:50.501Z,100716.41
2022-10-30T22:34:17.320Z,100719.81
2022-10-30T22:36:44.226Z,100714.47
2022-10-30T22:39:13.105Z,100718.81
2022-10-30T22:41:40.702Z,100718.56
2022-10-30T22:44:11.092Z,100721.41
2022-10-30T22:46:38.123Z,100715.69
2022-10-30T22:49:05.656Z,100721.06
2022-10-30T22:51:34.613Z,100722.38
2022-10-30T22:54:04.034Z,100721.34
2022-10-30T22:56:35.673Z,100720.31
2022-10-30T22:59:05.561Z,100721.34
2022-10-30T23:01:34.228Z,100713.53
2022-10-30T23:04:02.764Z,100705.91
2022-10-30T23:06:31.552Z,100708.53
2022-10-30T23:09:00.223Z,100711.63
2022-10-30T23:11:28.537Z,100695.00
2022-10-30T23:13:55.579Z,100693.47
2022-10-30T23:16:24.888Z,100689.25
2022-10-30T23:18:54.379Z,100685.00
2022-10-30T23:21:23.861Z,100680.75
2022-10-30T23:23:50.610Z,100678.19
2022-10-30T23:26:26.328Z,100679.59
2022-10-30T23:28:54.793Z,100678.06
2022-10-30T23:31:30.521Z,100677.25
2022-10-30T23:33:59.706Z,100679.78
2022-10-30T23:36:27.269Z,100684.41
2022-10-30T23:38:59.692Z,100672.63
2022-10-30T23:41:28.971Z,100681.28
2022-10-30T23:43:57.849Z,100676.47
2022-10-30T23:46:25.004Z,100673.56
2022-10-30T23:48:51.835Z,100671.91
2022-10-30T23:51:19.242Z,100675.31
2022-10-30T23:53:46.096Z,100676.28
2022-10-30T23:56:13.511Z,100666.94
2022-10-30T23:58:43.695Z,100671.34
